Share

هرات, افغانستان

02:20 PM AFT on آوریل 23, 2014 (GMT +0430)
Herat (OAHR) Elev 3163 ft | 34.21 °N, 62.23 °E | Change Station

Current weather conditions updated 55 minutes ago

Scattered Clouds
ابرهای پراکنده
90 °F
Feels Like 90 °F
N
7
باد متغير باد from NNW
طلوع آفتاب 5:40 AM
غروب آفتاب 6:58 PM
ماه ربع آخر

Today is forecast to be Warmer than yesterday. رگبارهای آخر شب. tonight.

فشار 29.98 در
ديد 6.2 مايل، ميل (در برابر كيلومتر
ابری ابرهای پراکنده 4000 ft
قطره شبنم 36 °F
رطوبت 15%
بارش باران 0.00 در
برف عمیق Not available.
مادون قرمز 8 out of 16
Pollen Not available.
تمیزی هوا Not available.
Flu Activity Not available.
METAR OAHR 230855Z 33006KT 9999 SCT040 32/02 Q1015 RMK SCT VIS MIN 9999 BLU

More Conditions Fewer Conditions

فشار 29.98 در
ديد 6.2 مايل، ميل (در برابر كيلومتر
ابری ابرهای پراکنده 4000 ft
قطره شبنم 36 °F
رطوبت 15%
بارش باران 0.00 در
برف عمیق Not available.
مادون قرمز 8 out of 16
Pollen Not available.
تمیزی هوا Not available.
Flu Activity Not available.
METAR OAHR 230855Z 33006KT 9999 SCT040 32/02 Q1015 RMK SCT VIS MIN 9999 BLU

More Conditions Fewer Conditions

10-Day Weather Forecast

Almanac

ستاره شناسی

Apr. 23, 2014 Rise Set
وقت حقیقی 5:40 AM AFT 6:58 PM AFT
تاریک و روشن اجتماعی 5:14 AM AFT 7:24 PM AFT
تاریک روشن دریایی 4:43 AM AFT 7:56 PM AFT
شفق و فلق نجومی 4:10 AM AFT 8:28 PM AFT
ماه 1:37 AM AFT 12:55 PM AFT
میزان روشنایی روز 14h 10m
طول روز
13h 17m
Tomorrow will be 1m 56s longer.
ربع آخر, 38% of the Moon is Illuminated
امروز
ربع آخر
Apr 29
New
May 6
ربع اول
May 14
ماه کامل
May 21
ربع آخر

Yesterday's Extremes

Country Highs Country Lows

Community

  • April Sunset
    April Sunset
  • Waiting..
    Waiting..
  • Sunset...
    Sunset...
  • Happy outdoor day
    Happy outdoor day
  • mystic afternoon....
    mystic afternoon....

WunderPhotos

Upload Photos

1,704,235 photos uploaded!

WunderBlogs® & News

By Dr. Jeff Masters
Director of Meteorology, Weather Underground
By Kari Strenfel
Meteorologist, Weather Underground
By Christopher C. Burt
Weather Historian, Weather Underground
April 23, 2014
April 22, 2014
April 22, 2014

Nearby

تمیزی هوا

Not available.

عمق برف

Not available.

Coastal Water Temperatures

منطقه درجه حرارت
No Stations Reporting

Earthquake Activity

شهر Distance Mag. Time & Date
No recent earthquake activity has been reported nearby.
Minimum magnitude displayed is 2.5.

Nearby Weather Stations

There are no personal weather stations in this area.

What do you think?

We're not finished. Please let us know what you like, what you don't like, and what you are still missing.